sensor_id;sensor_type;location;lat;lon;timestamp;temperature;humidity
14053;DHT22;7101;51.600;7.310;2022-09-14T00:00:45;17.80;99.90
14053;DHT22;7101;51.600;7.310;2022-09-14T00:03:14;17.80;99.90
14053;DHT22;7101;51.600;7.310;2022-09-14T00:05:41;17.80;99.90
14053;DHT22;7101;51.600;7.310;2022-09-14T00:08:09;17.70;99.90
14053;DHT22;7101;51.600;7.310;2022-09-14T00:10:38;17.70;99.90
14053;DHT22;7101;51.600;7.310;2022-09-14T00:13:06;17.70;99.90
14053;DHT22;7101;51.600;7.310;2022-09-14T00:15:35;17.70;99.90
14053;DHT22;7101;51.600;7.310;2022-09-14T00:18:03;17.70;99.90
14053;DHT22;7101;51.600;7.310;2022-09-14T00:20:31;17.60;99.90
14053;DHT22;7101;51.600;7.310;2022-09-14T00:23:00;17.60;99.90
14053;DHT22;7101;51.600;7.310;2022-09-14T00:25:27;17.60;99.90
14053;DHT22;7101;51.600;7.310;2022-09-14T00:27:55;17.60;99.90
14053;DHT22;7101;51.600;7.310;2022-09-14T00:30:23;17.60;99.90
14053;DHT22;7101;51.600;7.310;2022-09-14T00:32:50;17.50;99.90
14053;DHT22;7101;51.600;7.310;2022-09-14T00:35:17;17.50;99.90
14053;DHT22;7101;51.600;7.310;2022-09-14T00:37:47;17.50;99.90
14053;DHT22;7101;51.600;7.310;2022-09-14T00:40:14;17.50;99.90
14053;DHT22;7101;51.600;7.310;2022-09-14T00:42:41;17.40;99.90
14053;DHT22;7101;51.600;7.310;2022-09-14T00:45:18;17.30;99.90
14053;DHT22;7101;51.600;7.310;2022-09-14T00:47:47;17.40;99.90
14053;DHT22;7101;51.600;7.310;2022-09-14T00:50:15;17.50;99.90
14053;DHT22;7101;51.600;7.310;2022-09-14T00:52:46;17.60;99.90
14053;DHT22;7101;51.600;7.310;2022-09-14T00:55:16;17.50;99.90
14053;DHT22;7101;51.600;7.310;2022-09-14T00:57:46;17.50;99.90
14053;DHT22;7101;51.600;7.310;2022-09-14T01:00:17;17.50;99.90
14053;DHT22;7101;51.600;7.310;2022-09-14T01:02:44;17.50;99.90
14053;DHT22;7101;51.600;7.310;2022-09-14T01:05:12;17.40;99.90
14053;DHT22;7101;51.600;7.310;2022-09-14T01:07:51;17.40;99.90
14053;DHT22;7101;51.600;7.310;2022-09-14T01:10:27;17.40;99.90
14053;DHT22;7101;51.600;7.310;2022-09-14T01:13:05;17.40;99.90
14053;DHT22;7101;51.600;7.310;2022-09-14T01:15:41;17.40;99.90
14053;DHT22;7101;51.600;7.310;2022-09-14T01:18:15;17.30;99.90
14053;DHT22;7101;51.600;7.310;2022-09-14T01:20:47;17.40;99.90
14053;DHT22;7101;51.600;7.310;2022-09-14T01:23:26;17.40;99.90
14053;DHT22;7101;51.600;7.310;2022-09-14T01:28:50;17.40;99.90
14053;DHT22;7101;51.600;7.310;2022-09-14T01:31:25;17.30;99.90
14053;DHT22;7101;51.600;7.310;2022-09-14T01:34:00;17.30;99.90
14053;DHT22;7101;51.600;7.310;2022-09-14T01:36:31;17.20;99.90
14053;DHT22;7101;51.600;7.310;2022-09-14T01:39:00;17.20;99.90
14053;DHT22;7101;51.600;7.310;2022-09-14T01:41:29;17.20;99.90
14053;DHT22;7101;51.600;7.310;2022-09-14T01:44:02;17.30;99.90
14053;DHT22;7101;51.600;7.310;2022-09-14T01:46:37;17.40;99.90
14053;DHT22;7101;51.600;7.310;2022-09-14T01:49:08;17.40;99.90
14053;DHT22;7101;51.600;7.310;2022-09-14T01:51:41;17.30;99.90
14053;DHT22;7101;51.600;7.310;2022-09-14T01:54:13;17.30;99.90
14053;DHT22;7101;51.600;7.310;2022-09-14T01:56:45;17.20;99.90
14053;DHT22;7101;51.600;7.310;2022-09-14T01:59:18;17.10;99.90
14053;DHT22;7101;51.600;7.310;2022-09-14T02:01:48;17.10;99.90
14053;DHT22;7101;51.600;7.310;2022-09-14T02:04:24;17.10;99.90
14053;DHT22;7101;51.600;7.310;2022-09-14T02:06:52;17.10;99.90
14053;DHT22;7101;51.600;7.310;2022-09-14T02:09:21;17.10;99.90
14053;DHT22;7101;51.600;7.310;2022-09-14T02:11:51;17.10;99.90
14053;DHT22;7101;51.600;7.310;2022-09-14T02:14:20;17.00;99.90
14053;DHT22;7101;51.600;7.310;2022-09-14T02:16:47;17.10;99.90
14053;DHT22;7101;51.600;7.310;2022-09-14T02:19:14;17.10;99.90
14053;DHT22;7101;51.600;7.310;2022-09-14T02:21:40;17.10;99.90
14053;DHT22;7101;51.600;7.310;2022-09-14T02:24:08;17.10;99.90
14053;DHT22;7101;51.600;7.310;2022-09-14T02:26:36;17.10;99.90
14053;DHT22;7101;51.600;7.310;2022-09-14T02:29:04;17.10;99.90
14053;DHT22;7101;51.600;7.310;2022-09-14T02:31:43;17.00;99.90
14053;DHT22;7101;51.600;7.310;2022-09-14T02:34:17;17.20;99.90
14053;DHT22;7101;51.600;7.310;2022-09-14T02:36:47;17.20;99.90
14053;DHT22;7101;51.600;7.310;2022-09-14T02:39:23;17.30;99.90
14053;DHT22;7101;51.600;7.310;2022-09-14T02:41:57;17.20;99.90
14053;DHT22;7101;51.600;7.310;2022-09-14T02:44:33;17.20;99.90
14053;DHT22;7101;51.600;7.310;2022-09-14T02:47:07;17.20;99.90
14053;DHT22;7101;51.600;7.310;2022-09-14T02:49:42;17.20;99.90
14053;DHT22;7101;51.600;7.310;2022-09-14T02:52:14;17.20;99.90
14053;DHT22;7101;51.600;7.310;2022-09-14T02:54:47;17.10;99.90
14053;DHT22;7101;51.600;7.310;2022-09-14T02:57:16;17.20;99.90
14053;DHT22;7101;51.600;7.310;2022-09-14T02:59:43;17.10;99.90
14053;DHT22;7101;51.600;7.310;2022-09-14T03:02:11;17.20;99.90
14053;DHT22;7101;51.600;7.310;2022-09-14T03:04:39;17.20;99.90
14053;DHT22;7101;51.600;7.310;2022-09-14T03:07:05;17.10;99.90
14053;DHT22;7101;51.600;7.310;2022-09-14T03:09:33;17.10;99.90
14053;DHT22;7101;51.600;7.310;2022-09-14T03:12:00;17.10;99.90
14053;DHT22;7101;51.600;7.310;2022-09-14T03:14:27;17.00;99.90
14053;DHT22;7101;51.600;7.310;2022-09-14T03:16:54;17.10;99.90
14053;DHT22;7101;51.600;7.310;2022-09-14T03:19:22;17.10;99.90
14053;DHT22;7101;51.600;7.310;2022-09-14T03:21:49;17.00;99.90
14053;DHT22;7101;51.600;7.310;2022-09-14T03:24:16;17.00;99.90
14053;DHT22;7101;51.600;7.310;2022-09-14T03:26:43;17.00;99.90
14053;DHT22;7101;51.600;7.310;2022-09-14T03:29:10;17.10;99.90
14053;DHT22;7101;51.600;7.310;2022-09-14T03:31:37;17.00;99.90
14053;DHT22;7101;51.600;7.310;2022-09-14T03:34:04;17.00;99.90
14053;DHT22;7101;51.600;7.310;2022-09-14T03:36:32;16.90;99.90
14053;DHT22;7101;51.600;7.310;2022-09-14T03:38:59;16.90;99.90
14053;DHT22;7101;51.600;7.310;2022-09-14T03:41:28;16.90;99.90
14053;DHT22;7101;51.600;7.310;2022-09-14T03:43:54;16.80;99.90
14053;DHT22;7101;51.600;7.310;2022-09-14T03:46:23;16.80;99.90
14053;DHT22;7101;51.600;7.310;2022-09-14T03:48:50;16.70;99.90
14053;DHT22;7101;51.600;7.310;2022-09-14T03:51:17;16.60;99.90
14053;DHT22;7101;51.600;7.310;2022-09-14T03:53:46;16.50;99.90
14053;DHT22;7101;51.600;7.310;2022-09-14T03:56:14;16.40;99.90
14053;DHT22;7101;51.600;7.310;2022-09-14T03:58:43;16.30;99.90
14053;DHT22;7101;51.600;7.310;2022-09-14T04:01:11;16.20;99.90
14053;DHT22;7101;51.600;7.310;2022-09-14T04:03:40;16.20;99.90
14053;DHT22;7101;51.600;7.310;2022-09-14T04:06:07;16.10;99.90
14053;DHT22;7101;51.600;7.310;2022-09-14T04:08:35;16.00;99.90
14053;DHT22;7101;51.600;7.310;2022-09-14T04:11:07;16.00;99.90
14053;DHT22;7101;51.600;7.310;2022-09-14T04:13:34;15.90;99.90
14053;DHT22;7101;51.600;7.310;2022-09-14T04:16:01;15.90;99.90
14053;DHT22;7101;51.600;7.310;2022-09-14T04:18:29;15.70;99.90
14053;DHT22;7101;51.600;7.310;2022-09-14T04:20:56;15.70;99.90
14053;DHT22;7101;51.600;7.310;2022-09-14T04:23:24;15.50;99.90
14053;DHT22;7101;51.600;7.310;2022-09-14T04:25:51;15.40;99.90
14053;DHT22;7101;51.600;7.310;2022-09-14T04:28:21;15.40;99.90
14053;DHT22;7101;51.600;7.310;2022-09-14T04:30:58;15.40;99.90
14053;DHT22;7101;51.600;7.310;2022-09-14T04:33:28;15.40;99.90
14053;DHT22;7101;51.600;7.310;2022-09-14T04:35:56;15.40;99.90
14053;DHT22;7101;51.600;7.310;2022-09-14T04:38:24;15.50;99.90
14053;DHT22;7101;51.600;7.310;2022-09-14T04:40:51;15.50;99.90
14053;DHT22;7101;51.600;7.310;2022-09-14T04:43:18;15.50;99.90
14053;DHT22;7101;51.600;7.310;2022-09-14T04:45:46;15.40;99.90
14053;DHT22;7101;51.600;7.310;2022-09-14T04:48:13;15.30;99.90
14053;DHT22;7101;51.600;7.310;2022-09-14T04:50:40;15.30;99.90
14053;DHT22;7101;51.600;7.310;2022-09-14T04:53:07;15.20;99.90
14053;DHT22;7101;51.600;7.310;2022-09-14T04:55:34;15.20;99.90
14053;DHT22;7101;51.600;7.310;2022-09-14T04:58:01;15.20;99.90
14053;DHT22;7101;51.600;7.310;2022-09-14T05:00:28;15.30;99.90
14053;DHT22;7101;51.600;7.310;2022-09-14T05:02:56;15.30;99.90
14053;DHT22;7101;51.600;7.310;2022-09-14T05:05:23;15.30;99.90
14053;DHT22;7101;51.600;7.310;2022-09-14T05:07:50;15.30;99.90
14053;DHT22;7101;51.600;7.310;2022-09-14T05:10:17;15.30;99.90
14053;DHT22;7101;51.600;7.310;2022-09-14T05:12:44;15.30;99.90
14053;DHT22;7101;51.600;7.310;2022-09-14T05:15:11;15.30;99.90
14053;DHT22;7101;51.600;7.310;2022-09-14T05:17:37;15.20;99.90
14053;DHT22;7101;51.600;7.310;2022-09-14T05:20:07;15.20;99.90
14053;DHT22;7101;51.600;7.310;2022-09-14T05:22:34;15.20;99.90
14053;DHT22;7101;51.600;7.310;2022-09-14T05:25:01;15.20;99.90
14053;DHT22;7101;51.600;7.310;2022-09-14T05:27:28;15.20;99.90
14053;DHT22;7101;51.600;7.310;2022-09-14T05:29:55;15.20;99.90
14053;DHT22;7101;51.600;7.310;2022-09-14T05:32:22;15.10;99.90
14053;DHT22;7101;51.600;7.310;2022-09-14T05:34:49;15.00;99.90
14053;DHT22;7101;51.600;7.310;2022-09-14T05:37:17;15.00;99.90
14053;DHT22;7101;51.600;7.310;2022-09-14T05:39:44;15.00;99.90
14053;DHT22;7101;51.600;7.310;2022-09-14T05:42:11;14.90;99.90
14053;DHT22;7101;51.600;7.310;2022-09-14T05:44:38;14.90;99.90
14053;DHT22;7101;51.600;7.310;2022-09-14T05:47:04;14.80;99.90
14053;DHT22;7101;51.600;7.310;2022-09-14T05:49:31;14.90;99.90
14053;DHT22;7101;51.600;7.310;2022-09-14T05:51:58;14.90;99.90
14053;DHT22;7101;51.600;7.310;2022-09-14T05:54:27;14.80;99.90
14053;DHT22;7101;51.600;7.310;2022-09-14T05:56:56;14.70;99.90
14053;DHT22;7101;51.600;7.310;2022-09-14T05:59:23;14.70;99.90
14053;DHT22;7101;51.600;7.310;2022-09-14T06:01:51;14.70;99.90
14053;DHT22;7101;51.600;7.310;2022-09-14T06:04:18;14.80;99.90
14053;DHT22;7101;51.600;7.310;2022-09-14T06:06:45;14.80;99.90
14053;DHT22;7101;51.600;7.310;2022-09-14T06:09:12;14.80;99.90
14053;DHT22;7101;51.600;7.310;2022-09-14T06:11:40;14.80;99.90
14053;DHT22;7101;51.600;7.310;2022-09-14T06:14:07;14.80;99.90
14053;DHT22;7101;51.600;7.310;2022-09-14T06:16:34;14.70;99.90
14053;DHT22;7101;51.600;7.310;2022-09-14T06:19:01;14.80;99.90
14053;DHT22;7101;51.600;7.310;2022-09-14T06:21:30;14.70;99.90
14053;DHT22;7101;51.600;7.310;2022-09-14T06:23:57;14.70;99.90
14053;DHT22;7101;51.600;7.310;2022-09-14T06:26:24;14.60;99.90
14053;DHT22;7101;51.600;7.310;2022-09-14T06:28:53;14.50;99.90
14053;DHT22;7101;51.600;7.310;2022-09-14T06:31:19;14.40;99.90
14053;DHT22;7101;51.600;7.310;2022-09-14T06:33:48;14.40;99.90
14053;DHT22;7101;51.600;7.310;2022-09-14T06:36:17;14.30;99.90
14053;DHT22;7101;51.600;7.310;2022-09-14T06:38:46;14.40;99.90
14053;DHT22;7101;51.600;7.310;2022-09-14T06:41:15;14.40;99.90
14053;DHT22;7101;51.600;7.310;2022-09-14T06:43:43;14.50;99.90
14053;DHT22;7101;51.600;7.310;2022-09-14T06:46:13;14.50;99.90
14053;DHT22;7101;51.600;7.310;2022-09-14T06:48:42;14.40;99.90
14053;DHT22;7101;51.600;7.310;2022-09-14T06:51:11;14.30;99.90
14053;DHT22;7101;51.600;7.310;2022-09-14T06:53:38;14.40;99.90
14053;DHT22;7101;51.600;7.310;2022-09-14T06:56:05;14.40;99.90
14053;DHT22;7101;51.600;7.310;2022-09-14T06:58:32;14.30;99.90
14053;DHT22;7101;51.600;7.310;2022-09-14T07:01:01;14.30;99.90
14053;DHT22;7101;51.600;7.310;2022-09-14T07:03:30;14.20;99.90
14053;DHT22;7101;51.600;7.310;2022-09-14T07:06:01;14.20;99.90
14053;DHT22;7101;51.600;7.310;2022-09-14T07:08:28;14.30;99.90
14053;DHT22;7101;51.600;7.310;2022-09-14T07:10:55;14.20;99.90
14053;DHT22;7101;51.600;7.310;2022-09-14T07:13:23;14.20;99.90
14053;DHT22;7101;51.600;7.310;2022-09-14T07:15:50;14.10;99.90
14053;DHT22;7101;51.600;7.310;2022-09-14T07:18:17;14.20;99.90
14053;DHT22;7101;51.600;7.310;2022-09-14T07:20:45;14.20;99.90
14053;DHT22;7101;51.600;7.310;2022-09-14T07:23:12;14.20;99.90
14053;DHT22;7101;51.600;7.310;2022-09-14T07:25:39;14.20;99.90
14053;DHT22;7101;51.600;7.310;2022-09-14T07:28:07;14.10;99.90
14053;DHT22;7101;51.600;7.310;2022-09-14T07:30:35;14.10;99.90
14053;DHT22;7101;51.600;7.310;2022-09-14T07:33:02;14.30;99.90
14053;DHT22;7101;51.600;7.310;2022-09-14T07:35:29;14.20;99.90
14053;DHT22;7101;51.600;7.310;2022-09-14T07:37:57;14.20;99.90
14053;DHT22;7101;51.600;7.310;2022-09-14T07:40:24;14.20;99.90
14053;DHT22;7101;51.600;7.310;2022-09-14T07:42:52;14.20;99.90
14053;DHT22;7101;51.600;7.310;2022-09-14T07:45:19;14.20;99.90
14053;DHT22;7101;51.600;7.310;2022-09-14T07:47:46;14.10;99.90
14053;DHT22;7101;51.600;7.310;2022-09-14T07:50:14;14.10;99.90
14053;DHT22;7101;51.600;7.310;2022-09-14T07:52:42;14.10;99.90
14053;DHT22;7101;51.600;7.310;2022-09-14T07:55:10;14.10;99.90
14053;DHT22;7101;51.600;7.310;2022-09-14T07:57:38;14.10;99.90
14053;DHT22;7101;51.600;7.310;2022-09-14T08:00:06;14.10;99.90
14053;DHT22;7101;51.600;7.310;2022-09-14T08:02:34;14.10;99.90
14053;DHT22;7101;51.600;7.310;2022-09-14T08:05:01;14.20;99.90
14053;DHT22;7101;51.600;7.310;2022-09-14T08:07:28;14.20;99.90
14053;DHT22;7101;51.600;7.310;2022-09-14T08:09:55;14.10;99.90
14053;DHT22;7101;51.600;7.310;2022-09-14T08:12:23;14.10;99.90
14053;DHT22;7101;51.600;7.310;2022-09-14T08:14:50;14.10;99.90
14053;DHT22;7101;51.600;7.310;2022-09-14T08:17:18;14.10;99.90
14053;DHT22;7101;51.600;7.310;2022-09-14T08:19:46;14.10;99.90
14053;DHT22;7101;51.600;7.310;2022-09-14T08:22:13;14.20;99.90
14053;DHT22;7101;51.600;7.310;2022-09-14T08:24:40;14.10;99.90
14053;DHT22;7101;51.600;7.310;2022-09-14T08:27:08;14.10;99.90
14053;DHT22;7101;51.600;7.310;2022-09-14T08:29:37;14.10;99.90
14053;DHT22;7101;51.600;7.310;2022-09-14T08:32:04;14.20;99.90
14053;DHT22;7101;51.600;7.310;2022-09-14T08:34:31;14.20;99.90
14053;DHT22;7101;51.600;7.310;2022-09-14T08:36:58;14.30;99.90
14053;DHT22;7101;51.600;7.310;2022-09-14T08:39:25;14.10;99.90
14053;DHT22;7101;51.600;7.310;2022-09-14T08:41:54;14.10;99.90
14053;DHT22;7101;51.600;7.310;2022-09-14T08:44:25;14.00;99.90
14053;DHT22;7101;51.600;7.310;2022-09-14T08:46:58;14.10;99.90
14053;DHT22;7101;51.600;7.310;2022-09-14T08:49:36;14.10;99.90
14053;DHT22;7101;51.600;7.310;2022-09-14T08:52:06;14.20;99.90
14053;DHT22;7101;51.600;7.310;2022-09-14T08:54:35;14.30;99.90
14053;DHT22;7101;51.600;7.310;2022-09-14T08:57:08;14.30;99.90
14053;DHT22;7101;51.600;7.310;2022-09-14T08:59:44;14.40;99.90
14053;DHT22;7101;51.600;7.310;2022-09-14T09:02:24;14.50;99.90
14053;DHT22;7101;51.600;7.310;2022-09-14T09:04:59;14.60;99.90
14053;DHT22;7101;51.600;7.310;2022-09-14T09:07:33;14.70;99.90
14053;DHT22;7101;51.600;7.310;2022-09-14T09:10:04;14.60;99.90
14053;DHT22;7101;51.600;7.310;2022-09-14T09:12:35;14.50;99.90
14053;DHT22;7101;51.600;7.310;2022-09-14T09:15:17;14.50;99.90
14053;DHT22;7101;51.600;7.310;2022-09-14T09:17:50;14.60;99.90
14053;DHT22;7101;51.600;7.310;2022-09-14T09:20:20;14.80;99.90
14053;DHT22;7101;51.600;7.310;2022-09-14T09:22:51;14.90;99.90
14053;DHT22;7101;51.600;7.310;2022-09-14T09:25:21;14.90;99.90
14053;DHT22;7101;51.600;7.310;2022-09-14T09:27:49;14.80;99.90
14053;DHT22;7101;51.600;7.310;2022-09-14T09:30:17;14.70;99.90
14053;DHT22;7101;51.600;7.310;2022-09-14T09:32:45;14.70;99.90
14053;DHT22;7101;51.600;7.310;2022-09-14T09:35:17;14.50;99.90
14053;DHT22;7101;51.600;7.310;2022-09-14T09:37:44;14.60;99.90
14053;DHT22;7101;51.600;7.310;2022-09-14T09:40:16;14.60;99.90
14053;DHT22;7101;51.600;7.310;2022-09-14T09:43:05;14.60;99.90
14053;DHT22;7101;51.600;7.310;2022-09-14T09:45:48;14.50;99.90
14053;DHT22;7101;51.600;7.310;2022-09-14T09:48:19;14.50;99.90
14053;DHT22;7101;51.600;7.310;2022-09-14T09:50:53;14.50;99.90
14053;DHT22;7101;51.600;7.310;2022-09-14T09:53:22;14.70;99.90
14053;DHT22;7101;51.600;7.310;2022-09-14T09:55:49;14.70;99.90
14053;DHT22;7101;51.600;7.310;2022-09-14T09:58:21;14.70;99.90
14053;DHT22;7101;51.600;7.310;2022-09-14T10:00:55;14.70;99.90
14053;DHT22;7101;51.600;7.310;2022-09-14T10:03:30;14.60;99.90
14053;DHT22;7101;51.600;7.310;2022-09-14T10:06:04;14.70;99.90
14053;DHT22;7101;51.600;7.310;2022-09-14T10:08:32;14.70;99.90
14053;DHT22;7101;51.600;7.310;2022-09-14T10:11:05;14.70;99.90
14053;DHT22;7101;51.600;7.310;2022-09-14T10:13:34;14.70;99.90
14053;DHT22;7101;51.600;7.310;2022-09-14T10:16:13;14.80;99.90
14053;DHT22;7101;51.600;7.310;2022-09-14T10:18:45;14.80;99.90
14053;DHT22;7101;51.600;7.310;2022-09-14T10:21:15;14.90;99.90
14053;DHT22;7101;51.600;7.310;2022-09-14T10:23:43;14.80;99.90
14053;DHT22;7101;51.600;7.310;2022-09-14T10:26:22;14.80;99.90
14053;DHT22;7101;51.600;7.310;2022-09-14T10:28:50;14.80;99.90
14053;DHT22;7101;51.600;7.310;2022-09-14T10:31:22;14.80;99.90
14053;DHT22;7101;51.600;7.310;2022-09-14T10:33:52;14.80;99.90
14053;DHT22;7101;51.600;7.310;2022-09-14T10:36:23;14.70;99.90
14053;DHT22;7101;51.600;7.310;2022-09-14T10:38:52;14.70;99.90
14053;DHT22;7101;51.600;7.310;2022-09-14T10:41:25;14.60;99.90
14053;DHT22;7101;51.600;7.310;2022-09-14T10:47:07;14.70;99.90
14053;DHT22;7101;51.600;7.310;2022-09-14T10:49:46;14.70;99.90
14053;DHT22;7101;51.600;7.310;2022-09-14T10:52:20;14.70;99.90
14053;DHT22;7101;51.600;7.310;2022-09-14T10:55:02;14.70;99.90
14053;DHT22;7101;51.600;7.310;2022-09-14T10:57:41;14.70;99.90
14053;DHT22;7101;51.600;7.310;2022-09-14T11:00:12;14.60;99.90
14053;DHT22;7101;51.600;7.310;2022-09-14T11:02:56;14.60;99.90
14053;DHT22;7101;51.600;7.310;2022-09-14T11:05:28;14.70;99.90
14053;DHT22;7101;51.600;7.310;2022-09-14T11:08:11;14.80;99.90
14053;DHT22;7101;51.600;7.310;2022-09-14T11:10:53;14.80;99.90
14053;DHT22;7101;51.600;7.310;2022-09-14T11:13:51;14.70;99.90
14053;DHT22;7101;51.600;7.310;2022-09-14T11:16:36;14.70;99.90
14053;DHT22;7101;51.600;7.310;2022-09-14T11:19:13;14.80;99.90
14053;DHT22;7101;51.600;7.310;2022-09-14T11:21:46;14.80;99.90
14053;DHT22;7101;51.600;7.310;2022-09-14T11:24:24;14.70;99.90
14053;DHT22;7101;51.600;7.310;2022-09-14T11:26:59;14.70;99.90
14053;DHT22;7101;51.600;7.310;2022-09-14T11:29:30;14.60;99.90
14053;DHT22;7101;51.600;7.310;2022-09-14T11:32:02;14.50;99.90
14053;DHT22;7101;51.600;7.310;2022-09-14T11:34:33;14.50;99.90
14053;DHT22;7101;51.600;7.310;2022-09-14T11:37:05;14.70;99.90
14053;DHT22;7101;51.600;7.310;2022-09-14T11:39:38;14.80;99.90
14053;DHT22;7101;51.600;7.310;2022-09-14T11:42:11;14.60;99.90
14053;DHT22;7101;51.600;7.310;2022-09-14T11:44:42;14.60;99.90
14053;DHT22;7101;51.600;7.310;2022-09-14T11:47:13;14.50;99.90
14053;DHT22;7101;51.600;7.310;2022-09-14T11:49:51;14.50;99.90
14053;DHT22;7101;51.600;7.310;2022-09-14T11:52:22;14.50;99.90
14053;DHT22;7101;51.600;7.310;2022-09-14T11:54:51;14.50;99.90
14053;DHT22;7101;51.600;7.310;2022-09-14T11:57:19;14.60;99.90
14053;DHT22;7101;51.600;7.310;2022-09-14T11:59:49;14.70;99.90
14053;DHT22;7101;51.600;7.310;2022-09-14T12:02:56;14.80;99.90
14053;DHT22;7101;51.600;7.310;2022-09-14T12:05:26;14.70;99.90
14053;DHT22;7101;51.600;7.310;2022-09-14T12:07:59;14.70;99.90
14053;DHT22;7101;51.600;7.310;2022-09-14T12:10:28;14.70;99.90
14053;DHT22;7101;51.600;7.310;2022-09-14T12:12:57;14.70;99.90
14053;DHT22;7101;51.600;7.310;2022-09-14T12:15:34;14.60;99.90
14053;DHT22;7101;51.600;7.310;2022-09-14T12:18:20;14.70;99.90
14053;DHT22;7101;51.600;7.310;2022-09-14T12:20:47;14.80;99.90
14053;DHT22;7101;51.600;7.310;2022-09-14T12:23:24;14.80;99.90
14053;DHT22;7101;51.600;7.310;2022-09-14T12:26:11;14.70;99.90
14053;DHT22;7101;51.600;7.310;2022-09-14T12:28:44;14.70;99.90
14053;DHT22;7101;51.600;7.310;2022-09-14T12:32:03;14.60;99.90
14053;DHT22;7101;51.600;7.310;2022-09-14T12:34:34;14.60;99.90
14053;DHT22;7101;51.600;7.310;2022-09-14T12:37:26;14.60;99.90
14053;DHT22;7101;51.600;7.310;2022-09-14T12:46:34;14.70;99.90
14053;DHT22;7101;51.600;7.310;2022-09-14T12:49:22;14.80;99.90
14053;DHT22;7101;51.600;7.310;2022-09-14T12:51:50;14.70;99.90
14053;DHT22;7101;51.600;7.310;2022-09-14T12:54:23;14.70;99.90
14053;DHT22;7101;51.600;7.310;2022-09-14T12:57:08;14.80;99.90
14053;DHT22;7101;51.600;7.310;2022-09-14T12:59:41;14.80;99.90
14053;DHT22;7101;51.600;7.310;2022-09-14T13:02:37;14.80;99.90
14053;DHT22;7101;51.600;7.310;2022-09-14T13:05:13;14.80;99.90
14053;DHT22;7101;51.600;7.310;2022-09-14T13:07:41;14.80;99.90
14053;DHT22;7101;51.600;7.310;2022-09-14T13:10:18;14.70;99.90
14053;DHT22;7101;51.600;7.310;2022-09-14T13:12:47;14.70;99.90
14053;DHT22;7101;51.600;7.310;2022-09-14T13:15:17;14.80;99.90
14053;DHT22;7101;51.600;7.310;2022-09-14T13:18:00;14.70;99.90
14053;DHT22;7101;51.600;7.310;2022-09-14T13:20:29;14.80;99.90
14053;DHT22;7101;51.600;7.310;2022-09-14T13:22:57;14.90;99.90
14053;DHT22;7101;51.600;7.310;2022-09-14T13:25:30;14.90;99.90
14053;DHT22;7101;51.600;7.310;2022-09-14T13:28:02;14.90;99.90
14053;DHT22;7101;51.600;7.310;2022-09-14T13:30:31;14.90;99.90
14053;DHT22;7101;51.600;7.310;2022-09-14T13:32:59;14.80;99.90
14053;DHT22;7101;51.600;7.310;2022-09-14T13:35:30;14.80;99.90
14053;DHT22;7101;51.600;7.310;2022-09-14T13:37:58;14.90;99.90
14053;DHT22;7101;51.600;7.310;2022-09-14T13:40:28;15.00;99.90
14053;DHT22;7101;51.600;7.310;2022-09-14T13:42:56;15.00;99.90
14053;DHT22;7101;51.600;7.310;2022-09-14T13:45:24;14.90;99.90
14053;DHT22;7101;51.600;7.310;2022-09-14T13:47:52;15.00;99.90
14053;DHT22;7101;51.600;7.310;2022-09-14T13:50:22;15.10;99.90
14053;DHT22;7101;51.600;7.310;2022-09-14T13:52:50;15.00;99.90
14053;DHT22;7101;51.600;7.310;2022-09-14T13:55:21;15.00;99.90
14053;DHT22;7101;51.600;7.310;2022-09-14T13:58:18;15.10;99.90
14053;DHT22;7101;51.600;7.310;2022-09-14T14:00:49;15.10;99.90
14053;DHT22;7101;51.600;7.310;2022-09-14T14:03:28;15.10;99.90
14053;DHT22;7101;51.600;7.310;2022-09-14T14:05:57;15.10;99.90
14053;DHT22;7101;51.600;7.310;2022-09-14T14:08:28;15.20;99.90
14053;DHT22;7101;51.600;7.310;2022-09-14T14:10:58;15.20;99.90
14053;DHT22;7101;51.600;7.310;2022-09-14T14:13:27;15.20;99.90
14053;DHT22;7101;51.600;7.310;2022-09-14T14:16:12;15.20;99.90
14053;DHT22;7101;51.600;7.310;2022-09-14T14:18:41;15.30;99.90
14053;DHT22;7101;51.600;7.310;2022-09-14T14:21:16;15.30;99.90
14053;DHT22;7101;51.600;7.310;2022-09-14T14:23:50;15.30;99.90
14053;DHT22;7101;51.600;7.310;2022-09-14T14:26:22;15.20;99.90
14053;DHT22;7101;51.600;7.310;2022-09-14T14:28:50;15.20;99.90
14053;DHT22;7101;51.600;7.310;2022-09-14T14:31:19;15.20;99.90
14053;DHT22;7101;51.600;7.310;2022-09-14T14:33:47;15.20;99.90
14053;DHT22;7101;51.600;7.310;2022-09-14T14:36:18;15.20;99.90
14053;DHT22;7101;51.600;7.310;2022-09-14T14:38:45;15.20;99.90
14053;DHT22;7101;51.600;7.310;2022-09-14T14:41:13;15.20;99.90
14053;DHT22;7101;51.600;7.310;2022-09-14T14:43:42;15.10;99.90
14053;DHT22;7101;51.600;7.310;2022-09-14T14:46:11;15.10;99.90
14053;DHT22;7101;51.600;7.310;2022-09-14T14:48:38;15.00;99.90
14053;DHT22;7101;51.600;7.310;2022-09-14T14:51:08;15.10;99.90
14053;DHT22;7101;51.600;7.310;2022-09-14T14:53:37;15.10;99.90
14053;DHT22;7101;51.600;7.310;2022-09-14T14:56:04;15.20;99.90
14053;DHT22;7101;51.600;7.310;2022-09-14T14:58:40;15.20;99.90
14053;DHT22;7101;51.600;7.310;2022-09-14T15:01:07;15.20;99.90
14053;DHT22;7101;51.600;7.310;2022-09-14T15:03:34;15.20;99.90
14053;DHT22;7101;51.600;7.310;2022-09-14T15:06:10;15.20;99.90
14053;DHT22;7101;51.600;7.310;2022-09-14T15:08:40;15.20;99.90
14053;DHT22;7101;51.600;7.310;2022-09-14T15:11:13;15.20;99.90
14053;DHT22;7101;51.600;7.310;2022-09-14T15:13:41;15.30;99.90
14053;DHT22;7101;51.600;7.310;2022-09-14T15:16:08;15.20;99.90
14053;DHT22;7101;51.600;7.310;2022-09-14T15:18:34;15.30;99.90
14053;DHT22;7101;51.600;7.310;2022-09-14T15:21:01;15.30;99.90
14053;DHT22;7101;51.600;7.310;2022-09-14T15:23:28;15.30;99.90
14053;DHT22;7101;51.600;7.310;2022-09-14T15:25:56;15.30;99.90
14053;DHT22;7101;51.600;7.310;2022-09-14T15:28:23;15.30;99.90
14053;DHT22;7101;51.600;7.310;2022-09-14T15:30:50;15.20;99.90
14053;DHT22;7101;51.600;7.310;2022-09-14T15:33:20;15.20;99.90
14053;DHT22;7101;51.600;7.310;2022-09-14T15:35:53;15.20;99.90
14053;DHT22;7101;51.600;7.310;2022-09-14T15:38:20;15.30;99.90
14053;DHT22;7101;51.600;7.310;2022-09-14T15:40:47;15.30;99.90
14053;DHT22;7101;51.600;7.310;2022-09-14T15:43:16;15.30;99.90
14053;DHT22;7101;51.600;7.310;2022-09-14T15:45:43;15.30;99.90
14053;DHT22;7101;51.600;7.310;2022-09-14T15:48:12;15.20;99.90
14053;DHT22;7101;51.600;7.310;2022-09-14T15:50:40;15.00;99.90
14053;DHT22;7101;51.600;7.310;2022-09-14T15:53:08;15.00;99.90
14053;DHT22;7101;51.600;7.310;2022-09-14T15:55:44;15.10;99.90
14053;DHT22;7101;51.600;7.310;2022-09-14T15:58:15;14.90;99.90
14053;DHT22;7101;51.600;7.310;2022-09-14T16:00:42;14.70;99.90
14053;DHT22;7101;51.600;7.310;2022-09-14T16:03:10;14.80;99.90
14053;DHT22;7101;51.600;7.310;2022-09-14T16:05:40;14.70;99.90
14053;DHT22;7101;51.600;7.310;2022-09-14T16:08:08;14.70;99.90
14053;DHT22;7101;51.600;7.310;2022-09-14T16:10:35;14.70;99.90
14053;DHT22;7101;51.600;7.310;2022-09-14T16:13:02;14.70;99.90
14053;DHT22;7101;51.600;7.310;2022-09-14T16:15:31;14.70;99.90
14053;DHT22;7101;51.600;7.310;2022-09-14T16:17:58;14.80;99.90